MSC Lisbon — A8LL9 — position and weather

sailwx.info

Track history (hours):
 
Tides and Currents Weather Stations Pressure Air Temp Water Temp Dewpoint Dewpoint Depression Visibility Wind Speed Wind Dir Waves Ship Positions

MSC Lisbon

Last reported at 2016-May-04 11:33 UTC. Time now 2016-May-04 17:27 UTC.
Position N 36°49' W 075°46'.

Length 336.7 m; beam 45.6 m; draft 15.3 m.

Type: Ship (hazmat cat A). MMSI: 636091276.

Date/timePositionNaut miles runAvg speedWind from/ knotsBaromVisibWave heightAir tempDewpointWater temp
2016-May-04 11:33N 36°49' W 075°46'1515.2
2016-May-04 10:33N 36°57' W 076°02'1413.3
2016-May-04 09:32N 36°59' W 076°19'7 7.4
2016-May-04 08:33N 36°52' W 076°21'0 0.1
2016-May-04 07:32N 36°52' W 076°21'0 0.0
2016-May-04 06:32N 36°52' W 076°21'0 0.0
2016-May-04 05:32N 36°52' W 076°21'0 0.0
2016-May-04 04:32N 36°52' W 076°21'0 0.0
2016-May-04 03:32N 36°52' W 076°21'0 0.0
2016-May-04 02:32N 36°52' W 076°21'0 0.0
2016-May-04 01:32N 36°52' W 076°21'0 0.0
2016-May-04 00:32N 36°52' W 076°21'0 0.0
2016-May-03 23:32N 36°52' W 076°21'0 0.0
2016-May-03 22:32N 36°52' W 076°21'0 0.0
2016-May-03 21:32N 36°52' W 076°21'4 3.7
2016-May-03 20:33N 36°56' W 076°20'1110.9
2016-May-03 19:33N 36°59' W 076°07'1212.1
2016-May-03 18:33N 36°54' W 075°53'9 9.4
2016-May-03 17:33N 36°51' W 075°42'174 5.8
2016-May-02 11:32N 39°22' W 073°52'1010.3
2016-May-02 10:33N 39°32' W 073°52'1010.0
2016-May-02 09:33N 39°42' W 073°52'1010.1
2016-May-02 08:33N 39°52' W 073°51'1010.2
2016-May-02 07:33N 40°03' W 073°51'1410.3
2016-May-02 06:12N 40°16' W 073°49'910.1
2016-May-02 05:18N 40°26' W 073°49'7 9.9
2016-May-02 04:33N 40°30' W 073°57'1111.0
2016-May-02 03:33N 40°39' W 074°05'3 2.9
2016-May-02 02:33N 40°40' W 074°09'0 0.1
2016-May-02 01:33N 40°40' W 074°09'0 0.0
2016-May-02 00:33N 40°40' W 074°09'0 0.0
2016-May-01 23:33N 40°40' W 074°09'0 0.0
2016-May-01 22:33N 40°40' W 074°09'0 0.0
2016-May-01 09:28N 40°40' W 074°09'0 0.0
2016-May-01 08:33N 40°40' W 074°09'0 0.0
2016-May-01 07:33N 40°40' W 074°09'0 0.0
2016-May-01 06:33N 40°40' W 074°09'0 0.0
2016-May-01 05:32N 40°40' W 074°09'0 0.0
2016-May-01 04:29N 40°40' W 074°09'0 0.0
2016-May-01 03:32N 40°40' W 074°09'0 0.0
2016-May-01 02:32N 40°40' W 074°09'0 0.0
2016-May-01 01:32N 40°40' W 074°09'1 0.6
2016-May-01 00:34N 40°40' W 074°08'1 0.9
2016-Apr-30 23:32N 40°41' W 074°09'0 0.0
2016-Apr-30 22:32N 40°41' W 074°09'0 0.0
2016-Apr-30 21:32N 40°41' W 074°09'0 0.0
2016-Apr-30 20:31N 40°41' W 074°09'0 0.0
2016-Apr-30 19:31N 40°41' W 074°09'0 0.0
2016-Apr-30 18:31N 40°41' W 074°09'0 0.0
2016-Apr-30 17:28N 40°41' W 074°09'0 0.0
2016-Apr-30 16:31N 40°41' W 074°09'0 0.0
2016-Apr-30 15:28N 40°41' W 074°09'0 0.0
2016-Apr-30 14:31N 40°41' W 074°09'0 0.0
2016-Apr-30 13:31N 40°41' W 074°09'0 0.0
2016-Apr-30 12:25N 40°41' W 074°09'0 0.0
2016-Apr-30 11:31N 40°41' W 074°09'0 0.0
2016-Apr-30 10:31N 40°41' W 074°09'0 0.0
2016-Apr-30 09:28N 40°41' W 074°09'0 0.0
2016-Apr-30 08:31N 40°41' W 074°09'0 0.0
2016-Apr-30 07:10N 40°41' W 074°09'0 0.0
2016-Apr-30 06:31N 40°41' W 074°09'0 0.0
2016-Apr-30 05:31N 40°41' W 074°09'0 0.0
2016-Apr-30 04:31N 40°41' W 074°09'0 0.0
2016-Apr-30 03:31N 40°41' W 074°09'0 0.0
2016-Apr-30 02:31N 40°41' W 074°09'0 0.0
2016-Apr-30 01:28N 40°41' W 074°09'0 0.0
2016-Apr-30 00:31N 40°41' W 074°09'0 0.0
2016-Apr-29 23:28N 40°41' W 074°09'0 0.0
2016-Apr-29 22:31N 40°41' W 074°09'0 0.0
2016-Apr-29 21:31N 40°41' W 074°09'0 0.0
2016-Apr-29 20:31N 40°41' W 074°09'0 0.0
2016-Apr-29 19:31N 40°41' W 074°09'0 0.0
2016-Apr-29 18:31N 40°41' W 074°09'0 0.0
2016-Apr-29 17:31N 40°41' W 074°09'0 0.0
2016-Apr-29 16:31N 40°41' W 074°09'0 0.0
2016-Apr-29 15:31N 40°41' W 074°09'0 0.0
2016-Apr-29 14:31N 40°41' W 074°09'0 0.0
2016-Apr-29 13:31N 40°41' W 074°09'0 0.1
2016-Apr-29 12:31N 40°41' W 074°09'0 0.1
2016-Apr-29 11:31N 40°41' W 074°09'0 0.0
2016-Apr-29 10:34N 40°41' W 074°09'0 0.0
2016-Apr-29 09:33N 40°41' W 074°09'0 0.0
2016-Apr-29 08:21N 40°41' W 074°09'0 0.0
2016-Apr-29 06:03N 40°41' W 074°09'0 0.0
2016-Apr-29 04:33N 40°41' W 074°09'0 0.0
2016-Apr-29 03:33N 40°41' W 074°09'0 0.0
2016-Apr-29 02:33N 40°41' W 074°09'0 0.0
2016-Apr-29 01:33N 40°41' W 074°09'0 0.0
2016-Apr-29 00:33N 40°41' W 074°09'0 0.0
2016-Apr-28 23:33N 40°41' W 074°09'3 2.5
2016-Apr-28 22:33N 40°39' W 074°07'6 5.4
2016-Apr-28 21:31N 40°35' W 074°02'9 8.6
2016-Apr-28 20:31N 40°29' W 073°54'5 0.7
2016-Apr-28 12:17N 40°29' W 073°47'3 4.5
2016-Apr-28 11:32N 40°28' W 073°43'10 9.4
2016-Apr-28 10:29N 40°28' W 073°30'1412.5
2016-Apr-28 09:22N 40°29' W 073°11'1213.1
2016-Apr-28 08:29N 40°30' W 072°56'  
2016-Apr-25 00:00N 41°30' W 041°24'22518.8 330 / 22997.5 1.515.012.516.0
2016-Apr-24 12:00N 41°18' W 036°24'   200 / 28996.5 5.4 2.016.512.316.5
Track history (hours):
 
Tides and Currents Weather Stations Pressure Air Temp Water Temp Dewpoint Dewpoint Depression Visibility Wind Speed Wind Dir Waves Ship Positions

MSC Lisbon

Last reported at 2016-May-04 11:33 UTC. Time now 2016-May-04 17:27 UTC.
Position N 36°49' W 075°46'.

Length 336.7 m; beam 45.6 m; draft 15.3 m.

Type: Ship (hazmat cat A). MMSI: 636091276.

Date/timePositionNaut miles runAvg speedWind from/ knotsBaromVisibWave heightAir tempDewpointWater temp
2016-May-04 11:33N 36°49' W 075°46'1515.2
2016-May-04 10:33N 36°57' W 076°02'1413.3
2016-May-04 09:32N 36°59' W 076°19'7 7.4
2016-May-04 08:33N 36°52' W 076°21'0 0.1
2016-May-04 07:32N 36°52' W 076°21'0 0.0
2016-May-04 06:32N 36°52' W 076°21'0 0.0
2016-May-04 05:32N 36°52' W 076°21'0 0.0
2016-May-04 04:32N 36°52' W 076°21'0 0.0
2016-May-04 03:32N 36°52' W 076°21'0 0.0
2016-May-04 02:32N 36°52' W 076°21'0 0.0
2016-May-04 01:32N 36°52' W 076°21'0 0.0
2016-May-04 00:32N 36°52' W 076°21'0 0.0
2016-May-03 23:32N 36°52' W 076°21'0 0.0
2016-May-03 22:32N 36°52' W 076°21'0 0.0
2016-May-03 21:32N 36°52' W 076°21'4 3.7
2016-May-03 20:33N 36°56' W 076°20'1110.9
2016-May-03 19:33N 36°59' W 076°07'1212.1
2016-May-03 18:33N 36°54' W 075°53'9 9.4
2016-May-03 17:33N 36°51' W 075°42'174 5.8
2016-May-02 11:32N 39°22' W 073°52'1010.3
2016-May-02 10:33N 39°32' W 073°52'1010.0
2016-May-02 09:33N 39°42' W 073°52'1010.1
2016-May-02 08:33N 39°52' W 073°51'1010.2
2016-May-02 07:33N 40°03' W 073°51'1410.3
2016-May-02 06:12N 40°16' W 073°49'910.1
2016-May-02 05:18N 40°26' W 073°49'7 9.9
2016-May-02 04:33N 40°30' W 073°57'1111.0
2016-May-02 03:33N 40°39' W 074°05'3 2.9
2016-May-02 02:33N 40°40' W 074°09'0 0.1
2016-May-02 01:33N 40°40' W 074°09'0 0.0
2016-May-02 00:33N 40°40' W 074°09'0 0.0
2016-May-01 23:33N 40°40' W 074°09'0 0.0
2016-May-01 22:33N 40°40' W 074°09'0 0.0
2016-May-01 09:28N 40°40' W 074°09'0 0.0
2016-May-01 08:33N 40°40' W 074°09'0 0.0
2016-May-01 07:33N 40°40' W 074°09'0 0.0
2016-May-01 06:33N 40°40' W 074°09'0 0.0
2016-May-01 05:32N 40°40' W 074°09'0 0.0
2016-May-01 04:29N 40°40' W 074°09'0 0.0
2016-May-01 03:32N 40°40' W 074°09'0 0.0
2016-May-01 02:32N 40°40' W 074°09'0 0.0
2016-May-01 01:32N 40°40' W 074°09'1 0.6
2016-May-01 00:34N 40°40' W 074°08'1 0.9
2016-Apr-30 23:32N 40°41' W 074°09'0 0.0
2016-Apr-30 22:32N 40°41' W 074°09'0 0.0
2016-Apr-30 21:32N 40°41' W 074°09'0 0.0
2016-Apr-30 20:31N 40°41' W 074°09'0 0.0
2016-Apr-30 19:31N 40°41' W 074°09'0 0.0
2016-Apr-30 18:31N 40°41' W 074°09'0 0.0
2016-Apr-30 17:28N 40°41' W 074°09'0 0.0
2016-Apr-30 16:31N 40°41' W 074°09'0 0.0
2016-Apr-30 15:28N 40°41' W 074°09'0 0.0
2016-Apr-30 14:31N 40°41' W 074°09'0 0.0
2016-Apr-30 13:31N 40°41' W 074°09'0 0.0
2016-Apr-30 12:25N 40°41' W 074°09'0 0.0
2016-Apr-30 11:31N 40°41' W 074°09'0 0.0
2016-Apr-30 10:31N 40°41' W 074°09'0 0.0
2016-Apr-30 09:28N 40°41' W 074°09'0 0.0
2016-Apr-30 08:31N 40°41' W 074°09'0 0.0
2016-Apr-30 07:10N 40°41' W 074°09'0 0.0
2016-Apr-30 06:31N 40°41' W 074°09'0 0.0
2016-Apr-30 05:31N 40°41' W 074°09'0 0.0
2016-Apr-30 04:31N 40°41' W 074°09'0 0.0
2016-Apr-30 03:31N 40°41' W 074°09'0 0.0
2016-Apr-30 02:31N 40°41' W 074°09'0 0.0
2016-Apr-30 01:28N 40°41' W 074°09'0 0.0
2016-Apr-30 00:31N 40°41' W 074°09'0 0.0
2016-Apr-29 23:28N 40°41' W 074°09'0 0.0
2016-Apr-29 22:31N 40°41' W 074°09'0 0.0
2016-Apr-29 21:31N 40°41' W 074°09'0 0.0
2016-Apr-29 20:31N 40°41' W 074°09'0 0.0
2016-Apr-29 19:31N 40°41' W 074°09'0 0.0
2016-Apr-29 18:31N 40°41' W 074°09'0 0.0
2016-Apr-29 17:31N 40°41' W 074°09'0 0.0
2016-Apr-29 16:31N 40°41' W 074°09'0 0.0
2016-Apr-29 15:31N 40°41' W 074°09'0 0.0
2016-Apr-29 14:31N 40°41' W 074°09'0 0.0
2016-Apr-29 13:31N 40°41' W 074°09'0 0.1
2016-Apr-29 12:31N 40°41' W 074°09'0 0.1
2016-Apr-29 11:31N 40°41' W 074°09'0 0.0
2016-Apr-29 10:34N 40°41' W 074°09'0 0.0
2016-Apr-29 09:33N 40°41' W 074°09'0 0.0
2016-Apr-29 08:21N 40°41' W 074°09'0 0.0
2016-Apr-29 06:03N 40°41' W 074°09'0 0.0
2016-Apr-29 04:33N 40°41' W 074°09'0 0.0
2016-Apr-29 03:33N 40°41' W 074°09'0 0.0
2016-Apr-29 02:33N 40°41' W 074°09'0 0.0
2016-Apr-29 01:33N 40°41' W 074°09'0 0.0
2016-Apr-29 00:33N 40°41' W 074°09'0 0.0
2016-Apr-28 23:33N 40°41' W 074°09'3 2.5
2016-Apr-28 22:33N 40°39' W 074°07'6 5.4
2016-Apr-28 21:31N 40°35' W 074°02'9 8.6
2016-Apr-28 20:31N 40°29' W 073°54'5 0.7
2016-Apr-28 12:17N 40°29' W 073°47'3 4.5
2016-Apr-28 11:32N 40°28' W 073°43'10 9.4
2016-Apr-28 10:29N 40°28' W 073°30'1412.5
2016-Apr-28 09:22N 40°29' W 073°11'1213.1
2016-Apr-28 08:29N 40°30' W 072°56'  
2016-Apr-25 00:00N 41°30' W 041°24'22518.8 330 / 22997.5 1.515.012.516.0
2016-Apr-24 12:00N 41°18' W 036°24'   200 / 28996.5 5.4 2.016.512.316.5

Dump ship's entire track history